CMH weather

John Glenn Columbus International Airport
Columbus, Ohio, United States

Public forecast

Using degrees Fahrenheit for public forecast. Weather courtesy of forecast.io.

Current aviation weather report (METAR) for John Glenn Columbus International Airport

Retrieved 2020/06/06 20:51 UTC (36 minutes ago):

KCMH 062051Z 32014KT 10SM FEW060 FEW200 31/13 A2993 RMK AO2 SLP126 T03060133 58014

Aviation forecast (TAF) for John Glenn Columbus International Airport

Retrieved 2020/06/06 18:42 UTC (3 hours ago):

TAF KCMH 061741Z 0618/0718 32010KT P6SM FEW050 FM062300 34008KT P6SM FEW250 FM070600 04006KT P6SM FEW250 FM071400 04008KT P6SM FEW150